Latest Weather Observations for Lucas Heights

IDN60901

Issued at 11:25 pm EST Thursday 24 April 2014 (issued every 10 minutes, with the page automatically refreshed every 10 minutes)

About weather observations | Map of Sydney area stations | Latest observations for Sydney area | Other Formats
Station Details ID: 066023 Name: LUCAS HEIGHTS AWS Lat: -34.05 Lon: 150.98 Height: 140.0 m
Data from the previous 72 hours. | See also: Recent months for locations in New South Wales
Date/Time
EST
Tmp

°C
App
Tmp
°C
Dew
Point
°C
Rel
Hum
%
Delta-T

°C
Wind Press
QNH
hPa
Press
MSL
hPa
Rain
since
9 am
mm
Dir
 
Spd
km/h
Gust
km/h
Spd
kts
Gust
kts
24/11:15pm 18.9 17.0 15.1 78 2.2 SSE 19 30 10 16 1018.6 - 0.0
24/11:00pm 19.0 16.9 15.3 79 2.2 SSE 20 37 11 20 1018.5 - 0.0
24/10:45pm 19.1 16.7 15.4 79 2.2 SSE 22 37 12 20 1018.4 - 0.0
24/10:30pm 19.3 16.1 15.2 77 2.4 SSE 26 37 14 20 1018.4 - 0.0
24/10:15pm 19.5 15.4 14.9 75 2.7 SSE 30 43 16 23 1018.2 - 0.0
24/10:00pm 19.6 15.1 13.9 69 3.3 SSE 30 41 16 22 1018.0 - 0.0
24/09:45pm 19.7 15.2 12.5 63 4.1 SSE 28 41 15 22 1017.7 - 0.0
24/09:30pm 19.8 14.4 11.0 57 4.8 S 30 50 16 27 1017.4 - 0.0
24/09:15pm 20.3 14.8 10.6 53 5.3 S 30 52 16 28 1017.0 - 0.0
24/09:00pm 20.3 16.3 10.6 53 5.3 S 22 33 12 18 1016.6 - 0.0
24/08:45pm 20.8 16.8 10.5 51 5.6 S 22 32 12 17 1016.4 - 0.0
24/08:30pm 21.1 16.7 10.4 50 5.9 SSW 24 33 13 18 1016.2 - 0.0
24/08:15pm 21.2 16.4 10.3 49 6.0 SSW 26 37 14 20 1016.0 - 0.0
24/08:00pm 19.9 15.4 10.1 53 5.3 SSW 24 37 13 20 1015.8 - 0.0
24/07:45pm 19.2 15.8 9.3 52 5.3 S 17 28 9 15 1015.5 - 0.0
24/07:30pm 19.7 16.7 9.2 50 5.6 S 15 20 8 11 1015.3 - 0.0
24/07:15pm 19.3 16.6 8.8 50 5.5 S 13 19 7 10 1015.1 - 0.0
24/07:00pm 20.2 17.4 8.7 47 6.1 S 13 19 7 10 1014.9 - 0.0
24/06:45pm 21.0 18.2 8.5 44 6.6 SSE 13 20 7 11 1014.8 - 0.0
24/06:30pm 21.9 18.9 7.7 40 7.4 S 13 19 7 10 1014.4 - 0.0
24/06:15pm 23.1 18.9 7.3 36 8.3 SW 19 22 10 12 1013.9 - 0.0
24/06:00pm 23.5 19.1 7.4 35 8.5 SW 20 26 11 14 1013.6 - 0.0
24/05:45pm 23.9 19.8 7.8 35 8.5 SW 19 26 10 14 1013.4 - 0.0
24/05:30pm 24.3 20.7 8.2 35 8.6 SSW 17 22 9 12 1013.2 - 0.0
24/05:15pm 25.0 21.7 8.2 34 9.0 SW 15 22 8 12 1012.9 - 0.0
24/05:00pm 26.0 23.2 8.6 33 9.5 SW 13 19 7 10 1012.6 - 0.0
24/04:45pm 26.6 23.8 8.7 32 9.8 SW 13 19 7 10 1012.4 - 0.0
24/04:30pm 26.9 23.8 8.9 32 9.9 SW 15 22 8 12 1012.2 - 0.0
24/04:15pm 27.3 24.8 9.7 33 9.8 SW 13 22 7 12 1011.9 - 0.0
24/04:00pm 27.6 24.8 9.9 33 9.9 SW 15 19 8 10 1011.8 - 0.0
24/03:45pm 28.1 25.7 10.2 32 10.1 SW 13 20 7 11 1011.7 - 0.0
24/03:30pm 28.1 24.7 9.3 30 10.5 W 17 28 9 15 1011.5 - 0.0
24/03:15pm 27.7 24.3 9.2 31 10.3 WNW 17 26 9 14 1011.4 - 0.0
24/03:00pm 27.3 23.3 9.1 31 10.1 WNW 20 32 11 17 1011.3 - 0.0
24/02:45pm 27.2 23.8 9.2 32 10.0 WNW 17 30 9 16 1011.3 - 0.0
24/02:30pm 27.3 23.7 9.9 33 9.7 WNW 19 30 10 16 1011.3 - 0.0
24/02:15pm 26.8 24.6 10.8 36 9.1 WNW 13 20 7 11 1011.4 - 0.0
24/02:00pm 26.5 23.0 10.1 35 9.2 W 19 32 10 17 1011.4 - 0.0
24/01:45pm 26.3 21.8 10.1 36 9.1 W 24 32 13 17 1011.4 - 0.0
24/01:30pm 26.4 21.9 10.0 35 9.2 WNW 24 33 13 18 1011.5 - 0.0
24/01:15pm 26.0 21.8 9.7 35 9.0 WNW 22 30 12 16 1011.7 - 0.0
24/01:00pm 25.7 21.8 9.5 36 8.9 WNW 20 33 11 18 1011.8 - 0.0
24/12:45pm 25.4 21.6 9.2 36 8.9 W 19 24 10 13 1011.9 - 0.0
24/12:30pm 25.2 21.3 9.4 36 8.7 W 20 30 11 16 1012.1 - 0.0
24/12:15pm 24.7 21.5 10.1 39 8.1 W 17 26 9 14 1012.4 - 0.0
24/12:00pm 24.2 20.9 9.5 39 8.1 W 17 26 9 14 1012.7 - 0.0
24/11:45am 23.7 20.3 9.1 39 7.9 W 17 24 9 13 1013.0 - 0.0
24/11:30am 23.6 20.2 9.3 40 7.8 W 17 24 9 13 1013.1 - 0.0
24/11:15am 23.3 20.4 9.6 41 7.5 W 15 22 8 12 1013.3 - 0.0
24/11:00am 23.0 19.9 8.8 40 7.6 W 15 22 8 12 1013.4 - 0.0
24/10:45am 22.4 18.8 8.3 40 7.5 W 17 22 9 12 1013.5 - 0.0
24/10:30am 22.1 18.6 8.6 42 7.2 W 17 22 9 12 1013.5 - 0.0
24/10:15am 21.7 18.2 8.9 44 6.8 W 17 22 9 12 1013.6 - 0.0
24/10:00am 21.2 18.2 9.3 46 6.4 W 15 19 8 10 1013.6 - 0.0
24/09:45am 20.8 17.9 9.6 48 6.0 W 15 20 8 11 1013.6 - 0.0
24/09:30am 20.4 17.1 9.6 50 5.8 W 17 24 9 13 1013.6 - 0.0
24/09:15am 20.1 16.4 9.4 50 5.7 W 19 26 10 14 1013.7 - 0.0
24/09:00am 20.2 16.8 9.1 49 5.9 W 17 22 9 12 1013.7 - 0.0
24/08:45am 20.4 17.0 9.0 48 6.1 W 17 22 9 12 1013.6 - 0.0
24/08:30am 20.3 16.3 8.9 48 6.0 W 20 26 11 14 1013.6 - 0.0
24/08:15am 19.3 14.1 8.8 50 5.5 W 26 28 14 15 1013.6 - 0.0
24/08:00am 17.6 11.7 9.2 58 4.4 WSW 30 30 16 16 1013.5 - 0.0
24/07:45am 16.9 11.0 9.2 60 4.0 WSW 30 30 16 16 1013.4 - 0.0
24/07:30am 16.9 11.5 9.6 62 3.8 WSW 28 32 15 17 1013.2 - 0.0
24/07:15am 16.1 11.5 9.7 66 3.4 WSW 24 26 13 14 1013.0 - 0.0
24/07:00am 15.8 10.9 9.9 68 3.1 WSW 26 30 14 16 1012.9 - 0.0
24/06:45am 15.8 10.6 10.2 69 3.0 WSW 28 30 15 16 1012.9 - 0.0
24/06:30am 15.2 10.9 10.7 74 2.4 WSW 24 28 13 15 1012.8 - 0.0
24/06:15am 15.0 11.5 10.8 76 2.2 WSW 20 22 11 12 1012.8 - 0.0
24/06:00am 15.3 12.0 11.6 78 2.0 W 20 26 11 14 1012.8 - 0.0
24/05:45am 13.6 10.7 11.1 85 1.3 W 17 22 9 12 1012.7 - 0.0
24/05:30am 12.6 10.3 10.3 86 1.2 W 13 15 7 8 1012.7 - 0.0
24/05:15am 12.6 11.0 10.3 86 1.2 WNW 9 13 5 7 1012.6 - 0.0
24/05:00am 12.1 9.7 10.0 87 1.1 W 13 19 7 10 1012.7 - 0.0
24/04:45am 11.7 9.2 9.6 87 1.1 W 13 17 7 9 1012.8 - 0.0
24/04:30am 11.6 9.0 9.4 86 1.1 WSW 13 15 7 8 1012.8 - 0.0
24/04:15am 11.8 9.2 9.4 85 1.2 W 13 15 7 8 1012.9 - 0.0
24/04:00am 12.1 9.2 9.6 85 1.3 WSW 15 19 8 10 1013.0 - 0.0
24/03:45am 12.2 9.2 9.4 83 1.4 WSW 15 19 8 10 1013.2 - 0.0
24/03:30am 12.9 10.5 10.0 82 1.5 WSW 13 17 7 9 1013.2 - 0.0
24/03:15am 12.9 11.2 9.9 82 1.5 W 9 13 5 7 1013.2 - 0.0
24/03:00am 13.0 11.6 9.6 80 1.7 W 7 9 4 5 1013.2 - 0.0
24/02:45am 13.6 12.2 9.7 77 2.0 WNW 7 9 4 5 1013.4 - 0.0
24/02:30am 14.4 12.8 10.2 76 2.2 WNW 9 11 5 6 1013.6 - 0.0
24/02:15am 14.8 12.9 10.5 75 2.3 WNW 11 13 6 7 1013.8 - 0.0
24/02:00am 15.0 12.7 10.3 73 2.5 WNW 13 15 7 8 1014.0 - 0.0
24/01:45am 15.4 12.7 10.5 72 2.6 WNW 15 17 8 9 1014.0 - 0.0
24/01:30am 15.7 12.7 10.6 71 2.7 NW 17 20 9 11 1014.1 - 0.0
24/01:15am 16.0 12.6 10.7 71 2.8 NW 19 22 10 12 1014.2 - 0.0
24/01:00am 16.5 13.3 11.3 71 2.8 WNW 19 22 10 12 1014.3 - 0.0
24/12:45am 16.1 12.9 11.3 73 2.6 WNW 19 20 10 11 1014.4 - 0.0
24/12:30am 16.3 13.1 11.4 73 2.7 NW 19 20 10 11 1014.6 - 0.0
24/12:15am 16.2 13.4 11.3 73 2.7 NW 17 20 9 11 1014.7 - 0.0
24/12:00am 16.4 13.7 11.8 74 2.5 NW 17 19 9 10 1014.7 - 0.0
 
Date/Time
EST
Tmp

°C
App
Tmp
°C
Dew
Point
°C
Rel
Hum
%
Delta-T

°C
Wind Press
QNH
hPa
Press
MSL
hPa
Rain
since
9 am
mm
Dir
 
Spd
km/h
Gust
km/h
Spd
kts
Gust
kts
23/11:45pm 16.2 14.0 12.0 76 2.3 WNW 15 17 8 9 1014.8 - 0.0
23/11:30pm 15.7 13.5 12.1 79 2.0 NW 15 17 8 9 1014.9 - 0.0
23/11:15pm 15.0 12.8 12.1 83 1.6 NW 15 17 8 9 1015.1 - 0.0
23/11:00pm 14.2 12.1 11.3 83 1.6 NNW 13 15 7 8 1015.2 - 0.0
23/10:45pm 14.4 12.8 11.5 83 1.6 NNW 11 15 6 8 1015.2 - 0.0
23/10:30pm 14.4 12.8 11.5 83 1.6 NNW 11 15 6 8 1015.3 - 0.0
23/10:15pm 14.6 12.6 11.6 82 1.6 N 13 17 7 9 1015.5 - 0.0
23/10:00pm 14.4 12.4 11.5 83 1.6 N 13 15 7 8 1015.5 - 0.0
23/09:45pm 14.4 12.1 11.6 83 1.5 - 15 19 8 10 1015.6 - 0.0
23/09:30pm 14.4 12.8 11.5 83 1.6 - 11 17 6 9 1015.6 - 0.0
23/09:15pm 14.5 12.9 11.5 82 1.6 N 11 15 6 8 1015.6 - 0.0
23/09:00pm 14.6 13.0 11.4 81 1.7 NNE 11 15 6 8 1015.7 - 0.0
23/08:45pm 14.9 13.7 11.5 80 1.8 N 9 13 5 7 1015.8 - 0.0
23/08:30pm 15.3 14.1 11.6 78 2.0 N 9 13 5 7 1015.9 - 0.0
23/08:15pm 15.6 14.4 11.5 76 2.2 N 9 11 5 6 1016.0 - 0.0
23/08:00pm 15.9 14.6 11.4 74 2.4 N 9 13 5 7 1016.0 - 0.0
23/07:45pm 16.5 15.2 11.4 72 2.8 NNE 9 13 5 7 1016.0 - 0.0
23/07:30pm 16.9 16.1 11.7 71 2.9 N 7 13 4 7 1016.0 - 0.0
23/07:15pm 17.1 16.3 11.7 70 3.0 N 7 9 4 5 1015.9 - 0.0
23/07:00pm 17.3 16.5 11.8 70 3.0 NE 7 11 4 6 1015.8 - 0.0
23/06:45pm 17.1 15.8 11.4 69 3.1 NE 9 13 5 7 1015.8 - 0.0
23/06:30pm 17.5 15.5 11.4 67 3.3 NE 13 15 7 8 1015.5 - 0.0
23/06:15pm 17.9 16.3 11.4 65 3.6 NE 11 13 6 7 1015.5 - 0.0
23/06:00pm 18.3 16.7 11.4 64 3.8 ENE 11 13 6 7 1015.2 - 0.0
23/05:45pm 18.7 17.1 11.4 62 4.0 ENE 11 13 6 7 1015.1 - 0.0
23/05:30pm 19.6 18.5 12.0 61 4.2 NE 9 15 5 8 1015.1 - 0.0
23/05:15pm 20.5 19.3 12.8 61 4.4 NE 11 15 6 8 1014.9 - 0.0
23/05:00pm 21.5 19.8 12.6 57 5.1 NE 13 19 7 10 1014.8 - 0.0
23/04:45pm 22.3 20.5 12.2 52 5.7 NE 13 19 7 10 1014.8 - 0.0
23/04:30pm 22.8 21.3 12.0 50 6.1 NE 11 17 6 9 1014.8 - 0.0
23/04:15pm 23.1 21.7 12.3 50 6.2 ENE 11 15 6 8 1014.7 - 0.0
23/04:00pm 23.3 21.9 12.2 49 6.3 NE 11 13 6 7 1014.7 - 0.0
23/03:45pm 23.4 22.3 11.8 48 6.6 NE 9 13 5 7 1014.8 - 0.0
23/03:30pm 23.7 22.0 11.1 45 7.1 NE 11 13 6 7 1014.8 - 0.0
23/03:15pm 23.6 22.1 10.7 44 7.2 NE 9 13 5 7 1014.8 - 0.0
23/03:00pm 23.6 22.2 10.9 44 7.1 NE 9 15 5 8 1014.9 - 0.0
23/02:45pm 23.6 22.2 11.0 45 7.1 ENE 9 13 5 7 1014.9 - 0.0
23/02:30pm 23.6 21.9 11.2 45 7.0 NE 11 15 6 8 1014.9 - 0.0
23/02:15pm 23.9 22.8 11.8 46 6.9 NE 9 15 5 8 1014.9 - 0.0
23/02:00pm 23.5 22.0 11.9 48 6.6 E 11 15 6 8 1015.0 - 0.0
23/01:45pm 23.0 21.4 11.6 48 6.4 ESE 11 19 6 10 1015.1 - 0.0
23/01:30pm 23.4 22.3 12.0 48 6.5 ESE 9 15 5 8 1015.2 - 0.0
23/01:15pm 23.4 22.9 11.9 48 6.5 E 6 11 3 6 1015.3 - 0.0
23/01:00pm 23.8 23.4 12.4 48 6.6 NE 6 13 3 7 1015.4 - 0.0
23/12:45pm 22.9 22.3 11.6 49 6.4 NNW 6 9 3 5 1015.7 - 0.0
23/12:30pm 23.1 22.4 11.5 48 6.5 N 6 9 3 5 1015.9 - 0.0
23/12:15pm 23.1 22.9 11.7 48 6.5 W 4 9 2 5 1016.0 - 0.0
23/12:00pm 22.6 21.9 11.4 49 6.3 WNW 6 9 3 5 1016.2 - 0.0
23/11:45am 23.1 22.8 11.6 48 6.5 W 4 7 2 4 1016.3 - 0.0
23/11:30am 22.6 22.2 11.0 48 6.5 SW 4 7 2 4 1016.6 - 0.0
23/11:15am 22.0 21.2 11.1 50 6.1 WSW 6 9 3 5 1016.8 - 0.0
23/11:00am 21.4 19.9 10.6 50 5.9 WSW 9 15 5 8 1017.0 - 0.0
23/10:45am 20.9 19.1 10.9 52 5.5 W 11 15 6 8 1017.0 - 0.0
23/10:30am 20.2 18.4 10.8 54 5.2 W 11 17 6 9 1017.1 - 0.0
23/10:15am 19.8 18.3 10.5 55 5.1 W 9 15 5 8 1017.1 - 0.0
23/10:00am 19.2 17.3 10.6 57 4.7 W 11 15 6 8 1017.2 - 0.0
23/09:45am 18.6 17.1 10.4 59 4.4 W 9 15 5 8 1017.3 - 0.0
23/09:30am 18.0 15.9 9.9 59 4.3 W 11 15 6 8 1017.4 - 0.0
23/09:15am 17.6 15.9 9.7 60 4.2 W 9 15 5 8 1017.5 - 0.0
23/09:00am 17.3 14.8 9.6 60 4.1 W 13 19 7 10 1017.6 - 0.0
23/08:45am 17.0 14.4 9.4 61 4.0 W 13 20 7 11 1017.6 - 0.0
23/08:30am 16.7 14.1 9.2 61 3.9 W 13 19 7 10 1017.6 - 0.0
23/08:15am 16.6 13.1 8.8 60 4.0 WSW 17 22 9 12 1017.5 - 0.0
23/08:00am 16.4 13.3 8.7 60 4.0 WSW 15 19 8 10 1017.5 - 0.0
23/07:45am 16.3 12.7 8.4 59 4.0 WSW 17 19 9 10 1017.3 - 0.0
23/07:30am 15.5 11.4 8.0 61 3.8 WSW 19 22 10 12 1017.2 - 0.0
23/07:15am 14.7 10.6 7.7 63 3.5 WSW 19 22 10 12 1017.2 - 0.0
23/07:00am 13.8 10.3 7.2 64 3.2 SW 15 19 8 10 1017.0 - 0.0
23/06:45am 13.3 8.9 6.6 64 3.2 SW 19 20 10 11 1017.0 - 0.0
23/06:30am 13.6 9.6 6.7 63 3.3 SW 17 20 9 11 1016.9 - 0.0
23/06:15am 13.3 9.3 6.5 63 3.3 SW 17 19 9 10 1016.8 - 0.0
23/06:00am 13.4 9.3 6.4 62 3.4 SW 17 19 9 10 1016.7 - 0.0
23/05:45am 13.4 9.0 6.5 63 3.3 SW 19 22 10 12 1016.6 - 0.0
23/05:30am 13.2 8.7 6.2 62 3.4 SW 19 22 10 12 1016.6 - 0.0
23/05:15am 13.3 8.3 6.3 62 3.4 WSW 22 28 12 15 1016.6 - 0.0
23/05:00am 13.1 8.6 6.0 62 3.4 WSW 19 24 10 13 1016.5 - 0.0
23/04:45am 13.7 10.0 6.1 60 3.6 SW 15 22 8 12 1016.5 - 0.0
23/04:30am 13.8 9.3 6.1 59 3.7 SW 19 22 10 12 1016.5 - 0.0
23/04:15am 13.8 9.3 6.1 59 3.7 SW 19 20 10 11 1016.4 - 0.0
23/03:45am 13.8 9.3 6.1 59 3.7 SW 19 22 10 12 1016.3 - 0.0
23/03:30am 13.3 8.7 5.7 60 3.6 SW 19 22 10 12 1016.3 - 0.0
23/03:15am 13.5 8.8 5.3 57 3.9 SW 19 24 10 13 1016.3 - 0.0
23/03:00am 14.8 10.0 5.6 54 4.4 SW 20 24 11 13 1016.4 - 0.0
23/02:45am 14.8 10.0 5.6 54 4.4 SW 20 24 11 13 1016.4 - 0.0
23/02:30am 14.8 10.2 5.8 55 4.3 SW 19 22 10 12 1016.5 - 0.0
23/02:15am 14.6 10.0 5.8 55 4.2 SW 19 20 10 11 1016.5 - 0.0
23/02:00am 15.2 10.1 5.9 54 4.5 SW 22 26 12 14 1016.5 - 0.0
23/01:45am 15.4 9.9 6.1 54 4.5 SW 24 26 13 14 1016.6 - 0.0
23/01:30am 15.8 10.5 6.7 54 4.5 SW 24 28 13 15 1016.7 - 0.0
23/01:15am 15.4 10.2 7.2 58 4.1 SW 24 26 13 14 1016.7 - 0.0
23/01:00am 14.3 9.2 7.8 65 3.2 SW 24 26 13 14 1016.7 - 0.0
23/12:45am 13.6 9.3 7.9 68 2.8 SSW 20 26 11 14 1016.7 - 0.0
23/12:30am 12.7 8.8 7.1 69 2.7 S 17 20 9 11 1016.8 - 0.0
23/12:15am 13.2 10.1 7.1 66 3.0 S 13 17 7 9 1016.8 - 0.0
23/12:00am 13.4 10.3 7.1 65 3.1 SSW 13 19 7 10 1016.7 - 0.0
 
Date/Time
EST
Tmp

°C
App
Tmp
°C
Dew
Point
°C
Rel
Hum
%
Delta-T

°C
Wind Press
QNH
hPa
Press
MSL
hPa
Rain
since
9 am
mm
Dir
 
Spd
km/h
Gust
km/h
Spd
kts
Gust
kts
22/11:45pm 13.8 10.3 7.0 63 3.3 SSW 15 19 8 10 1016.7 - 0.0
22/11:30pm 15.2 11.8 7.5 60 3.8 SSW 15 19 8 10 1016.6 - 0.0
22/11:15pm 16.2 12.1 7.9 58 4.2 SW 19 24 10 13 1016.6 - 0.0
22/11:00pm 16.3 12.2 7.9 57 4.3 SW 19 20 10 11 1016.8 - 0.0
22/10:45pm 16.8 13.1 7.9 55 4.5 SW 17 20 9 11 1016.8 - 0.0
22/10:30pm 17.0 12.9 8.0 55 4.6 SW 19 22 10 12 1016.8 - 0.0
22/10:15pm 17.1 12.9 8.1 55 4.6 SW 20 22 11 12 1016.8 - 0.0
22/10:00pm 17.3 13.1 8.1 54 4.7 SW 20 26 11 14 1016.8 - 0.0
22/09:45pm 17.5 12.5 8.2 54 4.8 SW 24 26 13 14 1016.8 - 0.0
22/09:30pm 17.4 12.4 8.2 54 4.7 SW 24 26 13 14 1016.7 - 0.0
22/09:15pm 17.7 13.2 8.4 54 4.8 SW 22 26 12 14 1016.6 - 0.0
22/09:00pm 18.0 13.2 9.0 55 4.7 SW 24 28 13 15 1016.6 - 0.0
22/08:45pm 18.2 13.7 10.2 59 4.3 SW 24 30 13 16 1016.5 - 0.0
22/08:30pm 18.2 14.8 11.1 63 3.9 SW 20 24 11 13 1016.5 - 0.0
22/08:15pm 18.2 14.3 10.9 62 4.0 WSW 22 26 12 14 1016.5 - 0.0
22/08:00pm 18.6 15.1 10.9 61 4.2 WSW 20 24 11 13 1016.5 - 0.0
22/07:45pm 19.6 16.6 10.5 55 4.9 W 17 20 9 11 1016.3 - 0.0
22/07:30pm 20.1 17.8 10.4 53 5.3 WNW 13 15 7 8 1016.2 - 0.0
22/07:15pm 19.9 17.2 10.3 54 5.2 NW 15 19 8 10 1016.1 - 0.0
22/07:00pm 20.1 17.4 10.4 53 5.3 NW 15 17 8 9 1016.0 - 0.0
22/06:45pm 19.9 17.2 10.5 54 5.1 NW 15 17 8 9 1015.9 - 0.0
22/06:30pm 19.6 17.0 10.7 56 4.9 NW 15 17 8 9 1015.8 - 0.0
22/06:15pm 19.6 16.7 11.0 57 4.7 NW 17 19 9 10 1015.7 - 0.0
22/06:00pm 19.8 17.0 11.2 57 4.7 NW 17 19 9 10 1015.5 - 0.0
22/05:45pm 19.9 17.5 11.4 58 4.7 NW 15 19 8 10 1015.5 - 0.0
22/05:30pm 20.1 17.8 11.7 58 4.7 NW 15 19 8 10 1015.4 - 0.0
22/05:15pm 20.7 18.4 11.9 57 4.9 NW 15 15 8 8 1015.4 - 0.0
22/05:00pm 20.9 18.8 12.3 58 4.9 NW 15 17 8 9 1015.3 - 0.0
22/04:45pm 21.2 19.6 12.9 59 4.8 NNW 13 15 7 8 1015.2 - 0.0
22/04:30pm 21.7 20.5 12.9 57 5.1 NNW 11 15 6 8 1015.0 - 0.0
22/04:15pm 21.8 20.9 12.5 55 5.3 NNW 9 13 5 7 1015.0 - 0.0
22/04:00pm 22.2 21.4 11.8 51 5.9 NNW 7 13 4 7 1014.9 - 0.0
22/03:45pm 22.9 21.6 11.1 47 6.6 NNW 9 15 5 8 1014.9 - 0.0
22/03:30pm 23.3 21.8 10.7 45 7.0 NW 9 15 5 8 1014.9 - 0.0
22/03:15pm 23.5 21.9 10.3 43 7.3 WNW 9 13 5 7 1014.9 - 0.0
22/03:00pm 23.5 21.8 9.9 42 7.5 W 9 17 5 9 1014.9 - 0.0
22/02:45pm 23.4 21.3 9.7 41 7.5 W 11 19 6 10 1014.9 - 0.0
22/02:30pm 23.3 21.6 10.0 43 7.3 WNW 9 17 5 9 1015.0 - 0.0
22/02:15pm 22.9 21.2 9.7 43 7.2 WNW 9 17 5 9 1015.0 - 0.0
22/02:00pm 22.6 20.5 9.7 44 7.0 W 11 17 6 9 1015.1 - 0.0
22/01:45pm 22.6 20.6 10.0 44 6.9 W 11 19 6 10 1015.1 - 0.0
22/01:30pm 22.4 20.7 10.0 45 6.8 W 9 15 5 8 1015.2 - 0.0
22/01:15pm 22.0 20.5 10.4 47 6.4 W 9 15 5 8 1015.3 - 0.0
22/01:00pm 21.8 20.0 10.8 49 6.1 WNW 11 17 6 9 1015.6 - 0.0
22/12:45pm 21.5 20.0 10.7 50 6.0 WNW 9 15 5 8 1015.8 - 0.0
22/12:30pm 21.3 19.8 10.6 50 5.9 W 9 13 5 7 1016.0 - 0.0
22/12:15pm 20.8 19.3 10.7 52 5.5 WNW 9 15 5 8 1016.2 - 0.0
22/12:00pm 20.6 19.2 10.8 53 5.4 WNW 9 15 5 8 1016.6 - 0.0
22/11:45am 20.4 19.0 10.9 54 5.2 NW 9 15 5 8 1016.8 - 0.0
22/11:30am 20.1 18.3 10.8 55 5.1 NNW 11 19 6 10 1017.0 - 0.0
22/11:15am 19.8 17.8 10.2 54 5.2 NW 11 15 6 8 1017.2 - 0.0
22/11:00am 20.1 18.1 10.1 52 5.4 NW 11 19 6 10 1017.3 - 0.0
22/10:45am 19.8 18.6 10.4 54 5.1 NW 7 13 4 7 1017.5 - 0.0
22/10:30am 19.3 17.3 10.1 55 5.0 NW 11 17 6 9 1017.7 - 0.0
22/10:15am 19.2 17.2 10.3 56 4.8 NW 11 19 6 10 1017.9 - 0.0
22/10:00am 18.2 16.3 10.4 60 4.2 NW 11 20 6 11 1018.2 - 0.0
22/09:45am 17.5 15.2 10.6 64 3.7 WNW 13 20 7 11 1018.5 - 0.0
22/09:30am 17.0 14.4 10.6 66 3.4 W 15 22 8 12 1018.6 - 0.0
22/09:15am 16.3 13.6 10.5 68 3.1 W 15 24 8 13 1018.6 - 0.0
22/09:00am 16.0 14.2 10.7 71 2.8 W 11 19 6 10 1018.6 - 0.0
22/08:45am 15.6 13.7 10.6 72 2.7 W 11 17 6 9 1018.5 - 0.0
22/08:30am 15.4 14.3 11.8 79 2.0 W 9 15 5 8 1018.5 - 0.0
22/08:15am 14.4 13.9 12.6 89 1.0 W 7 15 4 8 1018.5 - 0.0
22/08:00am 12.9 11.7 11.5 91 0.7 W 9 15 5 8 1018.5 - 0.0
22/07:45am 12.1 10.3 10.7 91 0.7 W 11 13 6 7 1018.6 - 0.0
22/07:30am 11.6 9.7 10.4 92 0.6 W 11 13 6 7 1018.7 - 0.0
22/07:15am 10.4 8.2 9.2 92 0.6 W 11 15 6 8 1018.6 - 0.0
22/07:00am 9.7 7.2 8.4 92 0.6 WSW 11 15 6 8 1018.6 - 0.0
22/06:45am 9.6 6.0 8.3 92 0.6 WSW 17 19 9 10 1018.6 - 0.0
22/06:30am 11.0 7.4 9.8 92 0.6 WSW 19 20 10 11 1018.6 - 0.0
22/06:15am 10.8 7.1 9.6 92 0.6 WSW 19 20 10 11 1018.7 - 0.0
22/06:00am 10.8 7.5 9.7 93 0.6 WSW 17 19 9 10 1018.6 - 0.0
22/05:45am 10.4 7.4 9.3 93 0.6 WSW 15 15 8 8 1018.6 - 0.0
22/05:30am 10.0 7.3 8.8 92 0.6 W 13 15 7 8 1018.7 - 0.0
22/05:15am 9.4 6.5 8.2 92 0.6 W 13 15 7 8 1018.6 - 0.0
22/05:00am 9.9 7.1 8.7 92 0.6 W 13 15 7 8 1018.6 - 0.0
22/04:45am 9.9 6.8 8.7 92 0.6 W 15 19 8 10 1018.7 - 0.0
22/04:30am 9.8 7.0 8.6 92 0.6 NW 13 19 7 10 1018.7 - 0.0
22/04:15am 10.3 8.4 9.1 92 0.6 W 9 13 5 7 1018.6 - 0.0
22/04:00am 10.1 7.7 8.8 92 0.6 WSW 11 15 6 8 1018.5 - 0.0
22/03:45am 10.3 8.4 9.0 92 0.6 WSW 9 11 5 6 1018.4 - 0.0
22/03:30am 10.3 8.0 9.0 92 0.6 WSW 11 13 6 7 1018.5 - 0.0
22/03:15am 10.4 8.5 9.1 92 0.6 WSW 9 11 5 6 1018.6 - 0.0
22/03:00am 10.8 8.6 9.5 92 0.7 WSW 11 13 6 7 1018.7 - 0.0
22/02:45am 11.1 9.4 9.9 92 0.6 WSW 9 13 5 7 1018.9 - 0.0
22/02:30am 10.9 9.5 9.6 92 0.7 W 7 11 4 6 1019.0 - 0.0
22/02:15am 10.9 9.5 9.6 92 0.7 W 7 11 4 6 1019.1 - 0.0
22/02:00am 11.1 9.8 9.8 92 0.7 W 7 9 4 5 1019.2 - 0.0
22/01:45am 11.3 10.0 9.9 91 0.7 W 7 9 4 5 1019.4 - 0.0
22/01:30am 11.3 9.6 9.9 91 0.7 WNW 9 11 5 6 1019.5 - 0.0
22/01:15am 11.3 10.0 9.9 91 0.7 WNW 7 9 4 5 1019.7 - 0.0
22/01:00am 11.5 9.9 10.1 91 0.7 WNW 9 11 5 6 1019.8 - 0.0
22/12:45am 11.8 10.3 10.4 91 0.7 WNW 9 13 5 7 1019.9 - 0.0
22/12:30am 11.8 10.2 10.3 90 0.8 W 9 11 5 6 1019.9 - 0.0
22/12:15am 11.7 10.1 10.1 90 0.8 W 9 9 5 5 1019.9 - 0.0
22/12:00am 11.8 10.6 10.4 91 0.7 W 7 9 4 5 1020.0 - 0.0
 
Date/Time
EST
Tmp

°C
App
Tmp
°C
Dew
Point
°C
Rel
Hum
%
Delta-T

°C
Wind Press
QNH
hPa
Press
MSL
hPa
Rain
since
9 am
mm
Dir
 
Spd
km/h
Gust
km/h
Spd
kts
Gust
kts
21/11:45pm 11.9 10.7 10.4 90 0.8 W 7 9 4 5 1020.1 - 0.0
21/11:30pm 12.1 11.0 10.6 90 0.8 W 7 9 4 5 1020.2 - 0.0

Latest Capital City Observations: Canberra | Sydney | Melbourne | Brisbane | Adelaide | Perth | Hobart | Darwin

Other Formats:

Comma delimited format used in spreadsheet applications
http://www.bom.gov.au/fwo/IDN60901/IDN60901.95757.axf

JavaScript Object Notation format (JSON) in row-major order
http://www.bom.gov.au/fwo/IDN60901/IDN60901.95757.json